createdAt,value
2019-06-08T00:06:23.008Z,1.60
2019-06-08T00:08:52.597Z,1.30
2019-06-08T00:11:23.271Z,1.40
2019-06-08T00:13:53.082Z,1.30
2019-06-08T00:16:23.780Z,1.23
2019-06-08T00:18:53.279Z,1.27
2019-06-08T00:21:23.902Z,1.80
2019-06-08T00:23:53.510Z,1.40
2019-06-08T00:26:24.237Z,1.50
2019-06-08T00:28:53.777Z,1.33
2019-06-08T00:31:23.230Z,1.60
2019-06-08T00:36:48.677Z,1.67
2019-06-08T00:39:20.917Z,1.50
2019-06-08T00:41:52.726Z,1.60
2019-06-08T00:44:23.319Z,1.37
2019-06-08T00:46:53.015Z,1.60
2019-06-08T00:49:22.886Z,1.97
2019-06-08T00:51:52.415Z,1.67
2019-06-08T00:54:21.954Z,1.50
2019-06-08T00:56:53.592Z,1.50
2019-06-08T00:59:24.329Z,2.07
2019-06-08T01:01:53.850Z,1.70
2019-06-08T01:04:23.292Z,1.70
2019-06-08T01:06:55.354Z,1.40
2019-06-08T01:09:24.844Z,1.70
2019-06-08T01:11:54.339Z,1.53
2019-06-08T01:14:24.838Z,1.40
2019-06-08T01:16:54.277Z,1.70
2019-06-08T01:19:25.141Z,1.50
2019-06-08T01:21:54.725Z,1.50
2019-06-08T01:24:25.638Z,1.50
2019-06-08T01:26:55.375Z,1.57
2019-06-08T01:32:32.482Z,1.73
2019-06-08T01:35:02.059Z,1.70
2019-06-08T01:37:31.968Z,1.43
2019-06-08T01:40:01.623Z,1.73
2019-06-08T01:42:31.868Z,1.70
2019-06-08T01:45:03.434Z,2.07
2019-06-08T01:47:33.194Z,1.90
2019-06-08T01:50:02.696Z,1.80
2019-06-08T01:52:32.978Z,1.60
2019-06-08T01:55:02.688Z,1.70
2019-06-08T01:57:33.702Z,1.93
2019-06-08T02:00:28.681Z,1.50
2019-06-08T02:02:34.616Z,1.67
2019-06-08T02:05:07.060Z,1.60
2019-06-08T02:07:41.602Z,1.77
2019-06-08T02:10:11.323Z,1.87
2019-06-08T02:12:42.808Z,2.00
2019-06-08T02:15:13.042Z,1.97
2019-06-08T02:20:43.138Z,2.23
2019-06-08T02:23:12.587Z,1.53
2019-06-08T02:25:41.986Z,1.80
2019-06-08T02:28:11.356Z,1.70
2019-06-08T02:30:41.953Z,1.77
2019-06-08T02:33:11.437Z,1.70
2019-06-08T02:35:41.784Z,2.03
2019-06-08T02:38:11.456Z,2.23
2019-06-08T02:40:40.852Z,1.90
2019-06-08T02:43:38.288Z,1.63
2019-06-08T02:46:07.805Z,1.90
2019-06-08T02:48:56.312Z,1.90
2019-06-08T02:54:18.796Z,1.60
2019-06-08T02:56:50.143Z,1.60
2019-06-08T02:59:22.836Z,1.80
2019-06-08T03:01:56.734Z,2.63
2019-06-08T03:04:27.746Z,1.80
2019-06-08T03:06:59.713Z,1.73
2019-06-08T03:09:31.123Z,2.00
2019-06-08T03:12:04.902Z,1.60
2019-06-08T03:14:41.865Z,2.03
2019-06-08T03:17:11.051Z,2.20
2019-06-08T03:19:43.223Z,1.73
2019-06-08T03:22:15.855Z,1.50
2019-06-08T03:24:46.761Z,1.70
2019-06-08T03:27:16.368Z,2.00
2019-06-08T03:29:47.400Z,1.97
2019-06-08T03:32:17.852Z,2.20
2019-06-08T03:34:55.118Z,1.93
2019-06-08T03:37:18.764Z,1.80
2019-06-08T03:42:58.022Z,1.80
2019-06-08T03:45:28.563Z,2.23
2019-06-08T03:47:58.170Z,1.80
2019-06-08T03:50:28.116Z,1.60
2019-06-08T03:52:57.878Z,2.00
2019-06-08T03:55:28.314Z,2.07
2019-06-08T03:57:57.863Z,1.80
2019-06-08T04:00:27.287Z,2.20
2019-06-08T04:02:57.129Z,2.13
2019-06-08T04:05:26.589Z,2.33
2019-06-08T04:07:58.392Z,1.87
2019-06-08T04:10:28.504Z,2.00
2019-06-08T04:12:58.045Z,1.90
2019-06-08T04:15:31.118Z,2.00
2019-06-08T04:18:02.159Z,2.10
2019-06-08T04:20:33.624Z,2.03
2019-06-08T04:23:03.165Z,2.20
2019-06-08T04:25:32.660Z,2.20
2019-06-08T04:28:05.680Z,1.43
2019-06-08T04:30:39.346Z,1.70
2019-06-08T04:33:10.985Z,2.00
2019-06-08T04:35:42.559Z,2.20
2019-06-08T04:38:12.143Z,2.10
2019-06-08T04:40:45.668Z,1.70
2019-06-08T04:43:13.462Z,2.40
2019-06-08T04:45:45.178Z,1.80
2019-06-08T04:48:28.545Z,1.80
2019-06-08T04:50:57.989Z,2.07
2019-06-08T04:53:27.383Z,1.90
2019-06-08T04:55:56.807Z,1.77
2019-06-08T04:58:26.229Z,1.90
2019-06-08T05:00:55.602Z,1.80
2019-06-08T05:03:25.196Z,2.13
2019-06-08T05:09:00.288Z,1.87
2019-06-08T05:11:30.111Z,2.17
2019-06-08T05:13:59.690Z,1.77
2019-06-08T05:16:29.108Z,2.03
2019-06-08T05:18:58.538Z,2.30
2019-06-08T05:21:28.036Z,1.93
2019-06-08T05:23:58.837Z,1.80
2019-06-08T05:29:34.313Z,1.60
2019-06-08T05:35:11.870Z,2.07
2019-06-08T05:37:43.663Z,2.00
2019-06-08T05:40:14.569Z,2.20
2019-06-08T05:42:44.241Z,1.97
2019-06-08T05:45:14.850Z,2.43
2019-06-08T05:47:45.712Z,1.97
2019-06-08T05:53:14.498Z,1.90
2019-06-08T05:55:43.917Z,1.90
2019-06-08T05:58:13.339Z,2.27
2019-06-08T06:00:46.269Z,1.80
2019-06-08T06:03:15.821Z,2.10
2019-06-08T06:05:46.436Z,1.80
2019-06-08T06:08:19.290Z,2.40
2019-06-08T06:10:47.034Z,2.10
2019-06-08T06:13:16.428Z,2.23
2019-06-08T06:15:47.209Z,2.23
2019-06-08T06:18:16.587Z,2.80
2019-06-08T06:20:47.291Z,2.27
2019-06-08T06:23:16.758Z,2.20
2019-06-08T06:25:47.452Z,2.07
2019-06-08T06:28:16.966Z,2.40
2019-06-08T06:30:47.030Z,2.60
2019-06-08T06:33:17.346Z,1.80
2019-06-08T06:35:47.839Z,1.93
2019-06-08T06:38:17.226Z,2.20
2019-06-08T06:40:47.978Z,2.00
2019-06-08T06:43:17.385Z,2.20
2019-06-08T06:45:47.935Z,2.20
2019-06-08T06:48:17.405Z,2.17
2019-06-08T06:50:46.816Z,2.50
2019-06-08T06:53:16.299Z,2.07
2019-06-08T06:55:46.841Z,2.03
2019-06-08T06:58:16.451Z,2.07
2019-06-08T07:00:45.764Z,2.10
2019-06-08T07:03:15.136Z,2.10
2019-06-08T07:05:45.676Z,2.37
2019-06-08T07:08:15.146Z,2.20
2019-06-08T07:10:44.730Z,2.33
2019-06-08T07:13:14.112Z,2.40
2019-06-08T07:15:44.792Z,2.40
2019-06-08T07:18:14.428Z,3.07
2019-06-08T07:20:43.927Z,2.30
2019-06-08T07:23:13.491Z,2.60
2019-06-08T07:25:42.950Z,2.30
2019-06-08T07:28:12.371Z,2.73
2019-06-08T07:30:41.819Z,2.60
2019-06-08T07:33:11.375Z,2.57
2019-06-08T07:35:40.749Z,2.13
2019-06-08T07:38:10.178Z,3.10
2019-06-08T07:40:39.583Z,2.43
2019-06-08T07:43:09.037Z,2.50
2019-06-08T07:45:38.450Z,2.47
2019-06-08T07:48:08.070Z,2.73
2019-06-08T07:50:37.533Z,2.33
2019-06-08T07:53:06.939Z,2.93
2019-06-08T07:55:36.490Z,2.90
2019-06-08T07:58:05.974Z,2.60
2019-06-08T08:00:35.375Z,2.90
2019-06-08T08:03:04.842Z,2.73
2019-06-08T08:05:34.250Z,2.30
2019-06-08T08:08:03.652Z,2.47
2019-06-08T08:10:33.051Z,2.50
2019-06-08T08:13:02.472Z,2.73
2019-06-08T08:15:31.885Z,2.33
2019-06-08T08:18:01.312Z,2.30
2019-06-08T08:20:30.738Z,2.30
2019-06-08T08:23:05.563Z,2.70
2019-06-08T08:25:31.204Z,2.40
2019-06-08T08:28:01.073Z,2.67
2019-06-08T08:30:30.593Z,2.13
2019-06-08T08:33:03.016Z,2.47
2019-06-08T08:35:31.009Z,2.33
2019-06-08T08:38:02.968Z,3.07
2019-06-08T08:40:31.482Z,5.97
2019-06-08T08:46:07.760Z,2.57
2019-06-08T08:48:37.820Z,2.43
2019-06-08T08:51:08.567Z,2.13
2019-06-08T08:53:38.074Z,2.50
2019-06-08T08:56:07.536Z,2.50
2019-06-08T08:58:38.070Z,2.40
2019-06-08T09:01:11.583Z,2.13
2019-06-08T09:03:41.043Z,2.37
2019-06-08T09:06:10.596Z,2.30
2019-06-08T09:08:40.052Z,2.70
2019-06-08T09:11:14.648Z,2.60
2019-06-08T09:13:45.882Z,2.40
2019-06-08T09:16:17.678Z,2.20
2019-06-08T09:18:48.728Z,2.07
2019-06-08T09:21:20.206Z,2.43
2019-06-08T09:23:49.399Z,2.17
2019-06-08T09:26:21.033Z,2.47
2019-06-08T09:28:51.681Z,2.57
2019-06-08T09:34:22.855Z,2.20
2019-06-08T09:36:54.165Z,2.40
2019-06-08T09:39:23.910Z,2.17
2019-06-08T09:41:54.278Z,2.20
2019-06-08T09:44:24.416Z,2.13
2019-06-08T09:46:55.142Z,2.17
2019-06-08T09:52:32.564Z,2.20
2019-06-08T09:55:05.801Z,2.20
2019-06-08T09:57:34.326Z,2.03
2019-06-08T10:00:14.349Z,2.10
2019-06-08T10:02:34.955Z,2.37
2019-06-08T10:05:06.342Z,1.80
2019-06-08T10:07:38.517Z,2.10
2019-06-08T10:15:51.466Z,2.43
2019-06-08T10:18:19.507Z,2.40
2019-06-08T10:20:48.907Z,2.17
2019-06-08T10:23:30.730Z,3.03
2019-06-08T10:25:49.312Z,2.00
2019-06-08T10:28:21.596Z,2.03
2019-06-08T10:30:49.799Z,2.23
2019-06-08T10:33:19.187Z,1.90
2019-06-08T10:35:48.630Z,1.90
2019-06-08T10:38:18.275Z,2.23
2019-06-08T10:41:11.920Z,1.70
2019-06-08T10:43:38.618Z,2.00
2019-06-08T10:46:14.690Z,2.30
2019-06-08T10:48:39.167Z,2.07
2019-06-08T10:51:11.204Z,1.97
2019-06-08T10:53:49.183Z,2.23
2019-06-08T10:56:12.327Z,2.17
2019-06-08T10:58:41.977Z,2.83
2019-06-08T11:01:13.160Z,2.70
2019-06-08T11:03:42.475Z,2.50
2019-06-08T11:06:30.897Z,2.20
2019-06-08T11:09:03.720Z,2.40
2019-06-08T11:11:31.367Z,2.17
2019-06-08T11:14:02.521Z,2.07
2019-06-08T11:16:31.801Z,2.37
2019-06-08T11:19:03.031Z,2.30
2019-06-08T11:21:35.668Z,2.47
2019-06-08T11:24:16.142Z,2.33
2019-06-08T11:26:40.000Z,2.03
2019-06-08T11:29:11.404Z,2.40
2019-06-08T11:31:39.200Z,2.20
2019-06-08T11:34:10.212Z,2.03
2019-06-08T11:36:39.703Z,2.30
2019-06-08T11:39:12.588Z,2.30
2019-06-08T11:44:42.313Z,2.50
2019-06-08T11:50:23.029Z,2.60
2019-06-08T11:52:52.580Z,2.60
2019-06-08T11:55:25.109Z,2.40
2019-06-08T11:57:58.496Z,2.30
2019-06-08T12:01:04.589Z,2.40
2019-06-08T12:03:33.213Z,3.53
2019-06-08T12:06:04.099Z,2.83
2019-06-08T12:08:38.120Z,2.60
2019-06-08T12:11:15.688Z,3.13
2019-06-08T12:16:37.890Z,2.70
2019-06-08T12:19:15.122Z,2.70
2019-06-08T12:21:44.193Z,2.90
2019-06-08T12:24:15.771Z,2.50
2019-06-08T12:26:51.802Z,2.20
2019-06-08T12:29:21.359Z,2.40
2019-06-08T12:31:53.522Z,2.30
2019-06-08T12:34:28.049Z,2.67
2019-06-08T12:36:59.498Z,2.23
2019-06-08T12:39:29.550Z,2.30
2019-06-08T12:41:59.645Z,2.10
2019-06-08T12:44:29.648Z,2.50
2019-06-08T12:47:00.163Z,2.40
2019-06-08T12:55:22.697Z,2.33
2019-06-08T12:57:51.683Z,2.37
2019-06-08T13:03:29.913Z,2.33
2019-06-08T13:05:59.635Z,2.23
2019-06-08T13:08:30.238Z,2.00
2019-06-08T13:17:13.099Z,2.13
2019-06-08T13:19:59.602Z,2.33
2019-06-08T13:22:31.440Z,2.60
2019-06-08T13:28:08.782Z,2.00
2019-06-08T13:30:39.098Z,1.90
2019-06-08T13:33:20.195Z,2.33
2019-06-08T13:35:49.811Z,2.10
2019-06-08T13:47:38.235Z,2.43
2019-06-08T13:50:24.640Z,2.10
2019-06-08T13:52:54.352Z,2.40
2019-06-08T13:55:41.502Z,2.17
2019-06-08T13:57:55.436Z,2.17
2019-06-08T14:00:38.546Z,2.10
2019-06-08T14:03:09.463Z,2.13
2019-06-08T14:11:47.650Z,2.00
2019-06-08T14:14:17.689Z,2.23
2019-06-08T14:16:50.730Z,2.63
2019-06-08T14:19:23.288Z,2.10
2019-06-08T14:24:57.022Z,2.93
2019-06-08T14:27:28.581Z,3.20
2019-06-08T14:33:04.088Z,2.47
2019-06-08T14:35:33.388Z,2.17
2019-06-08T14:38:02.894Z,1.73
2019-06-08T14:40:33.169Z,1.77
2019-06-08T14:45:58.860Z,1.83
2019-06-08T14:48:33.562Z,1.67
2019-06-08T14:51:00.871Z,1.70
2019-06-08T14:53:30.292Z,1.90
2019-06-08T14:56:08.636Z,2.10
2019-06-08T14:58:38.564Z,1.80
2019-06-08T15:01:08.007Z,1.80
2019-06-08T15:03:38.117Z,1.80
2019-06-08T15:06:08.239Z,1.93
2019-06-08T15:08:37.965Z,2.37
2019-06-08T15:11:08.188Z,2.07
2019-06-08T15:13:40.559Z,1.73
2019-06-08T15:16:09.156Z,1.70
2019-06-08T15:18:38.660Z,1.80
2019-06-08T15:21:08.097Z,1.60
2019-06-08T15:23:37.479Z,1.53
2019-06-08T15:26:22.321Z,1.50
2019-06-08T15:28:38.076Z,1.70
2019-06-08T15:34:13.138Z,1.47
2019-06-08T15:36:42.564Z,1.60
2019-06-08T15:39:14.554Z,1.30
2019-06-08T15:41:44.012Z,1.37
2019-06-08T15:44:13.397Z,1.50
2019-06-08T15:46:42.767Z,1.30
2019-06-08T15:49:12.171Z,1.60
2019-06-08T15:51:41.589Z,1.60
2019-06-08T15:54:12.383Z,1.60
2019-06-08T15:56:51.220Z,1.47
2019-06-08T15:59:12.927Z,1.50
2019-06-08T16:01:42.295Z,1.60
2019-06-08T16:04:11.701Z,1.60
2019-06-08T16:06:41.675Z,1.53
2019-06-08T16:09:11.229Z,1.60
2019-06-08T16:11:40.637Z,1.90
2019-06-08T16:14:10.042Z,2.00
2019-06-08T16:16:39.421Z,1.90
2019-06-08T16:19:08.806Z,1.60
2019-06-08T16:21:38.391Z,1.60
2019-06-08T16:24:07.856Z,1.77
2019-06-08T16:26:49.982Z,2.00
2019-06-08T16:32:12.924Z,1.80
2019-06-08T16:34:42.361Z,1.93
2019-06-08T16:37:11.795Z,1.77
2019-06-08T16:39:41.244Z,2.10
2019-06-08T16:42:10.685Z,1.80
2019-06-08T16:44:40.093Z,1.60
2019-06-08T16:47:09.534Z,1.77
2019-06-08T16:49:39.657Z,1.80
2019-06-08T16:52:09.113Z,1.80
2019-06-08T16:54:39.007Z,1.90
2019-06-08T16:57:10.565Z,1.80
2019-06-08T16:59:58.522Z,1.70
2019-06-08T17:02:28.550Z,1.60
2019-06-08T17:04:58.106Z,1.80
2019-06-08T17:07:27.498Z,1.73
2019-06-08T17:09:56.876Z,1.90
2019-06-08T17:12:26.288Z,1.90
2019-06-08T17:14:55.654Z,1.70
2019-06-08T17:17:25.081Z,1.70
2019-06-08T17:19:54.471Z,1.70
2019-06-08T17:22:23.897Z,1.60
2019-06-08T20:32:52.311Z,2.20
2019-06-08T20:35:21.215Z,2.30
2019-06-08T20:37:50.649Z,1.90
2019-06-08T20:40:20.217Z,2.03
2019-06-08T20:42:53.282Z,1.90
2019-06-08T20:45:21.546Z,2.20
2019-06-08T20:47:52.288Z,2.20
2019-06-08T20:50:22.137Z,2.20
2019-06-08T20:52:52.787Z,2.20
2019-06-08T20:55:22.558Z,1.90
2019-06-08T20:57:52.411Z,2.30
2019-06-08T21:00:22.145Z,2.20
2019-06-08T21:02:53.247Z,2.20
2019-06-08T21:05:27.721Z,2.30
2019-06-08T21:07:55.677Z,2.10
2019-06-08T21:10:27.920Z,2.20
2019-06-08T21:12:58.612Z,2.10
2019-06-08T21:15:27.643Z,2.13
2019-06-08T21:17:57.082Z,2.10
2019-06-08T21:20:28.246Z,2.50
2019-06-08T21:22:59.641Z,2.70
2019-06-08T21:25:28.687Z,2.30
2019-06-08T21:27:58.595Z,2.77
2019-06-08T21:30:28.623Z,2.40
2019-06-08T21:33:00.671Z,2.30
2019-06-08T21:35:29.371Z,2.30
2019-06-08T21:38:00.830Z,2.60
2019-06-08T21:40:29.945Z,2.97
2019-06-08T21:43:01.126Z,2.63
2019-06-08T21:48:38.189Z,2.80
2019-06-08T21:51:09.013Z,2.60
2019-06-08T21:53:38.417Z,2.50
2019-06-08T21:56:08.187Z,2.40
2019-06-08T21:58:37.955Z,2.70
2019-06-08T22:01:07.563Z,2.90
2019-06-08T22:03:42.410Z,2.57
2019-06-08T22:06:11.963Z,3.33
2019-06-08T22:08:42.341Z,2.40
2019-06-08T22:11:11.825Z,2.80
2019-06-08T22:13:42.687Z,2.50
2019-06-08T22:16:14.143Z,2.80
2019-06-08T22:18:44.180Z,3.10
2019-06-08T22:21:17.771Z,2.70
2019-06-08T22:23:47.632Z,2.70
2019-06-08T22:26:17.807Z,3.17
2019-06-08T22:28:48.216Z,3.07
2019-06-08T22:31:18.618Z,2.70
2019-06-08T22:33:48.431Z,3.10
2019-06-08T22:36:18.898Z,2.70
2019-06-08T22:38:48.731Z,3.47
2019-06-08T22:41:18.461Z,3.20
2019-06-08T22:43:48.238Z,3.00
2019-06-08T22:46:17.895Z,3.10
2019-06-08T22:48:47.868Z,2.97
2019-06-08T22:51:18.729Z,3.03
2019-06-08T22:53:48.364Z,3.53
2019-06-08T22:56:18.325Z,2.90
2019-06-08T22:58:48.119Z,2.90
2019-06-08T23:04:23.255Z,3.10
2019-06-08T23:06:54.855Z,3.20
2019-06-08T23:09:28.206Z,2.90
2019-06-08T23:12:00.257Z,3.50
2019-06-08T23:14:28.562Z,3.10
2019-06-08T23:17:01.106Z,3.33
2019-06-08T23:19:29.519Z,3.13
2019-06-08T23:22:00.977Z,3.20
2019-06-08T23:24:29.988Z,3.13
2019-06-08T23:26:59.991Z,3.73
2019-06-08T23:29:29.559Z,2.87
2019-06-08T23:32:01.026Z,3.27
2019-06-08T23:34:30.064Z,3.60
2019-06-08T23:37:03.149Z,3.03
2019-06-08T23:39:30.591Z,3.03
2019-06-08T23:41:59.988Z,3.30
2019-06-08T23:44:29.351Z,3.10
2019-06-08T23:47:01.157Z,3.33
2019-06-08T23:49:29.967Z,3.50
2019-06-08T23:52:01.135Z,3.37
2019-06-08T23:54:30.508Z,3.20
2019-06-08T23:57:01.060Z,3.10
2019-06-08T23:59:30.550Z,3.10
